Página principal
METAR-TAF:

METAR-TAF

Aeroportos :

Jerez de la Frontera, Espanha

latitude: 36-45N, longitude: 006-04W, altura: 27 m

Observação actual do tempo

O boletim foi feito há 15 minutos, às 11:30 UTC
Vento 4 kt de nor-noroeste, variando entre oes-noroeste e es-nordeste
Temperatura 14°C
Humidade 63%
Pressão 1029 hPa
Visibilidade 10 km ou mais
sem nuvens abaixo de 1500 metros e sem cumulonimbus

METAR: LEJR 061130Z 34004KT 300V070 CAVOK 14/07 Q1029

Hora: 12:45 (11:45 UTC)

Previsão

O boletim foi feito há 3 horas e 45 minutos, às 08:00 UTC
Previsão válida de 06 às 09 UTC a 07 às 09 UTC
Vento 5 kt de norte
Visibilidade 10 km ou mais
sem nuvens abaixo de 1500 metros e sem cumulonimbus

TAF: LEJR 060800Z 0609/0709 01005KT CAVOK TX16/0614Z TN04/0707Z

Observações e previsões do tempo de mais de 4000 aeroportos (mensagens METAR e TAF).

As estações disponíveis são os pontos amarelos e vermelhos sobre o mapa.

Mova o rato sobre o mapa para ver o nome da estação.

Depois clique no ponto para visualizar as observações e previsões meteorológicas.

Para alterar o mapa : clique nos botões verdes com uma cruz preta para aumentar o zoom; no botão verde com uma pitada de zoom; ou nas setas verdes para mapas adjacentes.


METAR-TAF: